createdAt,value
2016-11-25T00:00:06.708Z,0
2016-11-25T00:01:06.714Z,0
2016-11-25T00:02:06.686Z,0
2016-11-25T00:03:06.675Z,0
2016-11-25T00:04:06.667Z,0
2016-11-25T00:05:06.644Z,0
2016-11-25T00:06:06.640Z,0
2016-11-25T00:07:06.625Z,0
2016-11-25T00:08:06.603Z,0
2016-11-25T00:09:06.595Z,0
2016-11-25T00:10:06.588Z,0
2016-11-25T00:11:06.573Z,0
2016-11-25T00:12:06.545Z,0
2016-11-25T00:13:06.529Z,0
2016-11-25T00:14:06.521Z,0
2016-11-25T00:15:06.519Z,0
2016-11-25T00:16:06.489Z,0
2016-11-25T00:17:06.477Z,0
2016-11-25T00:18:06.472Z,0
2016-11-25T00:19:06.451Z,0
2016-11-25T00:20:06.435Z,0
2016-11-25T00:21:06.427Z,0
2016-11-25T00:22:06.411Z,0
2016-11-25T00:23:06.435Z,0
2016-11-25T00:24:06.385Z,0
2016-11-25T00:25:06.370Z,0
2016-11-25T00:26:06.353Z,0
2016-11-25T00:27:06.342Z,0
2016-11-25T00:28:06.328Z,0
2016-11-25T00:29:06.312Z,0
2016-11-25T00:30:06.305Z,0
2016-11-25T00:31:06.287Z,0
2016-11-25T00:32:06.303Z,0
2016-11-25T00:33:06.256Z,0
2016-11-25T00:34:06.244Z,0
2016-11-25T00:35:06.238Z,0
2016-11-25T00:36:06.216Z,0
2016-11-25T00:37:06.205Z,0
2016-11-25T00:38:06.187Z,0
2016-11-25T00:39:06.179Z,0
2016-11-25T00:40:06.169Z,0
2016-11-25T00:41:06.151Z,0
2016-11-25T00:42:06.134Z,0
2016-11-25T00:43:06.125Z,0
2016-11-25T00:44:06.105Z,0
2016-11-25T00:45:06.094Z,0
2016-11-25T00:46:06.081Z,0
2016-11-25T00:47:06.069Z,0
2016-11-25T00:48:06.387Z,0
2016-11-25T00:49:06.041Z,0
2016-11-25T00:50:06.027Z,0
2016-11-25T00:51:06.018Z,0
2016-11-25T00:52:05.995Z,0
2016-11-25T00:53:05.995Z,0
2016-11-25T00:54:05.973Z,0
2016-11-25T00:55:05.959Z,0
2016-11-25T00:56:05.943Z,0
2016-11-25T00:57:05.934Z,0
2016-11-25T00:58:05.945Z,0
2016-11-25T00:59:05.906Z,0
2016-11-25T01:00:06.203Z,0
2016-11-25T01:01:05.878Z,0
2016-11-25T01:02:05.859Z,0
2016-11-25T01:03:05.849Z,0
2016-11-25T01:04:05.840Z,0
2016-11-25T01:05:05.822Z,0
2016-11-25T01:06:05.804Z,0
2016-11-25T01:07:05.795Z,0
2016-11-25T01:08:05.781Z,0
2016-11-25T01:09:05.796Z,0
2016-11-25T01:10:05.764Z,0
2016-11-25T01:11:05.741Z,0
2016-11-25T01:12:05.725Z,0
2016-11-25T01:13:05.710Z,0
2016-11-25T01:14:05.699Z,0
2016-11-25T01:15:06.159Z,0
2016-11-25T01:16:05.673Z,0
2016-11-25T01:17:05.658Z,0
2016-11-25T01:18:05.645Z,0
2016-11-25T01:19:05.631Z,0
2016-11-25T01:20:05.937Z,0
2016-11-25T01:21:05.601Z,0
2016-11-25T01:22:05.588Z,0
2016-11-25T01:23:05.573Z,0
2016-11-25T01:24:05.562Z,0
2016-11-25T01:25:05.549Z,0
2016-11-25T01:26:05.558Z,0
2016-11-25T01:27:05.517Z,0
2016-11-25T01:28:05.503Z,0
2016-11-25T01:29:05.488Z,0
2016-11-25T01:30:05.479Z,0
2016-11-25T01:31:05.468Z,0
2016-11-25T01:32:05.450Z,0
2016-11-25T01:33:05.440Z,0
2016-11-25T01:34:05.419Z,0
2016-11-25T01:35:05.407Z,0
2016-11-25T01:36:05.393Z,0
2016-11-25T01:37:05.375Z,0
2016-11-25T01:38:05.365Z,0
2016-11-25T01:39:05.353Z,0
2016-11-25T01:40:05.339Z,0
2016-11-25T01:41:05.639Z,0
2016-11-25T01:42:05.309Z,0
2016-11-25T01:43:05.295Z,0
2016-11-25T01:44:05.279Z,0
2016-11-25T01:45:05.278Z,0
2016-11-25T01:46:05.257Z,0
2016-11-25T01:47:05.238Z,0
2016-11-25T01:48:05.228Z,0
2016-11-25T01:49:05.211Z,0
2016-11-25T01:50:05.201Z,0
2016-11-25T01:51:05.181Z,0
2016-11-25T01:52:05.165Z,0
2016-11-25T01:53:05.156Z,0
2016-11-25T01:54:05.140Z,0
2016-11-25T01:55:05.128Z,0
2016-11-25T01:56:05.112Z,0
2016-11-25T01:57:05.104Z,0
2016-11-25T01:58:05.084Z,0
2016-11-25T01:59:05.100Z,0
2016-11-25T02:00:05.059Z,0
2016-11-25T02:01:05.047Z,0
2016-11-25T02:02:05.342Z,0
2016-11-25T02:03:05.029Z,0
2016-11-25T02:04:05.007Z,0
2016-11-25T02:05:04.994Z,0
2016-11-25T02:06:04.981Z,0
2016-11-25T02:07:04.966Z,0
2016-11-25T02:08:04.953Z,0
2016-11-25T02:09:05.289Z,0
2016-11-25T02:10:05.240Z,0
2016-11-25T02:11:04.950Z,0
2016-11-25T02:12:04.898Z,0
2016-11-25T02:13:04.913Z,0
2016-11-25T02:14:04.867Z,0
2016-11-25T02:15:04.874Z,0
2016-11-25T02:16:04.906Z,0
2016-11-25T02:17:04.831Z,0
2016-11-25T02:18:04.816Z,0
2016-11-25T02:19:04.803Z,0
2016-11-25T02:20:04.811Z,0
2016-11-25T02:21:04.776Z,0
2016-11-25T02:22:04.790Z,0
2016-11-25T02:23:04.782Z,0
2016-11-25T02:24:04.734Z,0
2016-11-25T02:25:04.730Z,0
2016-11-25T02:26:04.698Z,0
2016-11-25T02:27:04.689Z,0
2016-11-25T02:28:04.671Z,0
2016-11-25T02:29:04.673Z,0
2016-11-25T02:30:04.655Z,0
2016-11-25T02:31:04.646Z,0
2016-11-25T02:32:04.617Z,0
2016-11-25T02:33:04.608Z,0
2016-11-25T02:34:04.593Z,0
2016-11-25T02:35:04.574Z,0
2016-11-25T02:36:04.560Z,0
2016-11-25T02:37:04.575Z,0
2016-11-25T02:38:04.559Z,0
2016-11-25T02:39:04.523Z,0
2016-11-25T02:40:04.510Z,0
2016-11-25T02:41:04.491Z,0
2016-11-25T02:42:04.482Z,0
2016-11-25T02:43:04.461Z,0
2016-11-25T02:44:04.465Z,0
2016-11-25T02:45:04.441Z,0
2016-11-25T02:46:04.425Z,0
2016-11-25T02:47:04.408Z,0
2016-11-25T02:48:04.397Z,0
2016-11-25T02:49:04.382Z,0
2016-11-25T02:50:04.365Z,0
2016-11-25T02:51:04.366Z,0
2016-11-25T02:52:04.341Z,0
2016-11-25T02:53:04.326Z,0
2016-11-25T02:54:04.339Z,0
2016-11-25T02:55:04.316Z,0
2016-11-25T02:56:04.284Z,0
2016-11-25T02:57:04.310Z,0
2016-11-25T02:58:04.258Z,0
2016-11-25T02:59:04.243Z,0
2016-11-25T03:00:04.230Z,0
2016-11-25T03:01:04.251Z,0
2016-11-25T03:02:04.201Z,0
2016-11-25T03:03:04.187Z,0
2016-11-25T03:04:04.177Z,0
2016-11-25T03:05:04.163Z,0
2016-11-25T03:06:04.145Z,0
2016-11-25T03:07:04.165Z,0
2016-11-25T03:08:04.150Z,0
2016-11-25T03:09:04.104Z,0
2016-11-25T03:10:04.092Z,0
2016-11-25T03:11:04.073Z,0
2016-11-25T03:12:04.064Z,0
2016-11-25T03:13:04.052Z,0
2016-11-25T03:14:04.033Z,0
2016-11-25T03:15:04.060Z,0
2016-11-25T03:16:04.006Z,0
2016-11-25T03:17:04.003Z,0
2016-11-25T03:18:04.325Z,0
2016-11-25T03:19:03.981Z,0
2016-11-25T03:20:03.950Z,0
2016-11-25T03:21:03.937Z,0
2016-11-25T03:22:03.923Z,0
2016-11-25T03:23:03.911Z,0
2016-11-25T03:24:03.905Z,0
2016-11-25T03:25:03.896Z,0
2016-11-25T03:26:03.887Z,0
2016-11-25T03:27:03.871Z,0
2016-11-25T03:28:03.844Z,0
2016-11-25T03:29:03.822Z,0
2016-11-25T03:30:03.824Z,0
2016-11-25T03:31:03.804Z,0
2016-11-25T03:32:03.787Z,0
2016-11-25T03:33:03.782Z,0
2016-11-25T03:34:03.764Z,0
2016-11-25T03:35:03.743Z,0
2016-11-25T03:36:03.726Z,0
2016-11-25T03:37:03.719Z,0
2016-11-25T03:38:03.696Z,0
2016-11-25T03:39:03.686Z,0
2016-11-25T03:40:03.680Z,0
2016-11-25T03:41:03.662Z,0
2016-11-25T03:42:03.643Z,0
2016-11-25T03:43:03.702Z,0
2016-11-25T03:44:03.615Z,0
2016-11-25T03:45:03.599Z,0
2016-11-25T03:46:03.590Z,0
2016-11-25T03:47:03.571Z,0
2016-11-25T03:48:03.560Z,0
2016-11-25T03:49:03.541Z,0
2016-11-25T03:50:03.530Z,0
2016-11-25T03:51:03.516Z,0
2016-11-25T03:52:03.498Z,0
2016-11-25T03:53:03.489Z,0
2016-11-25T03:54:03.479Z,0
2016-11-25T03:55:03.462Z,0
2016-11-25T03:56:03.445Z,0
2016-11-25T03:57:03.429Z,0
2016-11-25T03:58:03.422Z,0
2016-11-25T03:59:03.402Z,0
2016-11-25T04:00:03.392Z,0
2016-11-25T04:01:03.408Z,0
2016-11-25T04:02:03.362Z,0
2016-11-25T04:03:03.345Z,0
2016-11-25T04:04:03.332Z,0
2016-11-25T04:05:03.319Z,0
2016-11-25T04:06:03.306Z,0
2016-11-25T04:07:03.288Z,0
2016-11-25T04:08:03.589Z,0
2016-11-25T04:09:03.263Z,0
2016-11-25T04:10:03.249Z,0
2016-11-25T04:11:03.231Z,0
2016-11-25T04:12:03.221Z,0
2016-11-25T04:13:03.204Z,0
2016-11-25T04:14:03.188Z,0
2016-11-25T04:15:03.176Z,0
2016-11-25T04:16:03.167Z,0
2016-11-25T04:17:03.148Z,0
2016-11-25T04:18:03.136Z,0
2016-11-25T04:19:03.119Z,0
2016-11-25T04:20:03.114Z,0
2016-11-25T04:21:03.088Z,0
2016-11-25T04:22:03.083Z,0
2016-11-25T04:23:03.064Z,0
2016-11-25T04:24:03.052Z,0
2016-11-25T04:25:03.036Z,0
2016-11-25T04:26:03.023Z,0
2016-11-25T04:27:03.011Z,0
2016-11-25T04:28:03.021Z,0
2016-11-25T04:29:02.975Z,0
2016-11-25T04:30:02.962Z,0
2016-11-25T04:31:02.984Z,0
2016-11-25T04:32:02.939Z,0
2016-11-25T04:33:02.927Z,0
2016-11-25T04:34:02.908Z,0
2016-11-25T04:35:02.892Z,0
2016-11-25T04:36:02.882Z,0
2016-11-25T04:37:02.866Z,0
2016-11-25T04:38:02.854Z,0
2016-11-25T04:39:02.836Z,0
2016-11-25T04:40:02.823Z,0
2016-11-25T04:41:03.129Z,0
2016-11-25T04:42:02.795Z,0
2016-11-25T04:43:02.779Z,0
2016-11-25T04:44:02.765Z,0
2016-11-25T04:45:02.752Z,0
2016-11-25T04:46:02.739Z,0
2016-11-25T04:47:02.725Z,0
2016-11-25T04:48:03.034Z,0
2016-11-25T04:49:02.697Z,0
2016-11-25T04:50:02.680Z,0
2016-11-25T04:51:02.670Z,0
2016-11-25T04:52:02.654Z,0
2016-11-25T04:53:02.636Z,0
2016-11-25T04:54:02.626Z,0
2016-11-25T04:55:02.614Z,0
2016-11-25T04:56:02.595Z,0
2016-11-25T04:57:02.581Z,0
2016-11-25T04:58:02.569Z,0
2016-11-25T04:59:02.566Z,0
2016-11-25T05:00:02.541Z,0
2016-11-25T05:01:02.528Z,0
2016-11-25T05:02:02.512Z,0
2016-11-25T05:03:02.506Z,0
2016-11-25T05:04:02.488Z,0
2016-11-25T05:05:02.472Z,0
2016-11-25T05:06:02.454Z,0
2016-11-25T05:07:02.446Z,0
2016-11-25T05:08:02.743Z,0
2016-11-25T05:09:02.417Z,0
2016-11-25T05:10:02.714Z,0
2016-11-25T05:11:02.386Z,0
2016-11-25T05:12:02.371Z,0
2016-11-25T05:13:02.359Z,0
2016-11-25T05:14:02.348Z,0
2016-11-25T05:15:02.331Z,0
2016-11-25T05:16:02.317Z,0
2016-11-25T05:17:02.304Z,0
2016-11-25T05:18:02.293Z,0
2016-11-25T05:19:02.279Z,0
2016-11-25T05:20:02.260Z,0
2016-11-25T05:21:02.250Z,0
2016-11-25T05:22:02.236Z,0
2016-11-25T05:23:02.221Z,0
2016-11-25T05:24:02.205Z,0
2016-11-25T05:25:02.191Z,0
2016-11-25T05:26:02.179Z,0
2016-11-25T05:27:02.163Z,0
2016-11-25T05:28:02.152Z,0
2016-11-25T05:29:02.138Z,0
2016-11-25T05:30:02.119Z,0
2016-11-25T05:31:02.105Z,0
2016-11-25T05:32:02.095Z,0
2016-11-25T05:33:02.078Z,0
2016-11-25T05:34:02.063Z,0
2016-11-25T05:35:02.054Z,0
2016-11-25T05:36:02.035Z,0
2016-11-25T05:37:02.020Z,0
2016-11-25T05:38:02.020Z,0
2016-11-25T05:39:01.995Z,0
2016-11-25T05:40:01.979Z,0
2016-11-25T05:41:01.965Z,0
2016-11-25T05:42:01.950Z,0
2016-11-25T05:43:01.935Z,0
2016-11-25T05:44:01.922Z,0
2016-11-25T05:45:01.912Z,0
2016-11-25T05:46:01.898Z,0
2016-11-25T05:47:01.893Z,0
2016-11-25T05:48:01.869Z,0
2016-11-25T05:49:01.856Z,0
2016-11-25T05:50:02.172Z,0
2016-11-25T05:51:01.825Z,0
2016-11-25T05:52:01.805Z,0
2016-11-25T05:53:01.827Z,0
2016-11-25T05:54:01.799Z,0
2016-11-25T05:55:01.776Z,0
2016-11-25T05:56:01.765Z,0
2016-11-25T05:57:01.733Z,0
2016-11-25T05:58:01.723Z,0
2016-11-25T05:59:01.708Z,0
2016-11-25T06:00:01.703Z,0
2016-11-25T06:01:01.689Z,0
2016-11-25T06:02:01.978Z,0
2016-11-25T06:03:01.652Z,0
2016-11-25T06:04:01.638Z,0
2016-11-25T06:05:01.620Z,0
2016-11-25T06:06:01.606Z,0
2016-11-25T06:07:01.597Z,0
2016-11-25T06:08:01.581Z,0
2016-11-25T06:09:01.573Z,0
2016-11-25T06:10:01.555Z,0
2016-11-25T06:11:01.539Z,0
2016-11-25T06:12:01.520Z,0
2016-11-25T06:13:01.507Z,0
2016-11-25T06:14:01.493Z,0
2016-11-25T06:15:01.477Z,0
2016-11-25T06:16:01.467Z,0
2016-11-25T06:17:01.451Z,0
2016-11-25T06:18:01.438Z,0
2016-11-25T06:19:01.424Z,4
2016-11-25T06:20:01.405Z,4
2016-11-25T06:21:01.393Z,0
2016-11-25T06:22:01.383Z,4
2016-11-25T06:23:01.367Z,4
2016-11-25T06:24:01.350Z,8
2016-11-25T06:25:01.332Z,4
2016-11-25T06:26:01.321Z,8
2016-11-25T06:27:01.307Z,8
2016-11-25T06:28:01.293Z,8
2016-11-25T06:29:01.283Z,12
2016-11-25T06:30:01.266Z,8
2016-11-25T06:31:01.248Z,12
2016-11-25T06:32:01.231Z,16
2016-11-25T06:33:01.217Z,16
2016-11-25T06:34:01.207Z,16
2016-11-25T06:35:01.228Z,20
2016-11-25T06:36:01.173Z,24
2016-11-25T06:37:01.165Z,28
2016-11-25T06:38:01.151Z,32
2016-11-25T06:39:01.134Z,36
2016-11-25T06:40:01.115Z,36
2016-11-25T06:41:01.099Z,44
2016-11-25T06:42:01.097Z,52
2016-11-25T06:43:01.394Z,56
2016-11-25T06:44:01.059Z,64
2016-11-25T06:45:01.042Z,68
2016-11-25T06:46:01.035Z,80
2016-11-25T06:47:01.014Z,84
2016-11-25T06:48:01.003Z,88
2016-11-25T06:49:00.986Z,96
2016-11-25T06:50:00.974Z,104
2016-11-25T06:51:00.954Z,112
2016-11-25T06:52:00.949Z,120
2016-11-25T06:53:00.965Z,120
2016-11-25T06:54:00.917Z,132
2016-11-25T06:55:00.903Z,144
2016-11-25T06:56:00.885Z,152
2016-11-25T06:57:00.875Z,160
2016-11-25T06:58:00.862Z,164
2016-11-25T06:59:00.844Z,172
2016-11-25T07:00:00.829Z,184
2016-11-25T07:01:00.815Z,208
2016-11-25T07:02:00.803Z,208
2016-11-25T07:03:00.787Z,228
2016-11-25T07:04:00.771Z,244
2016-11-25T07:05:00.787Z,280
2016-11-25T07:06:00.736Z,248
2016-11-25T07:07:00.733Z,272
2016-11-25T07:08:00.716Z,284
2016-11-25T07:09:00.701Z,288
2016-11-25T07:10:00.683Z,308
2016-11-25T07:11:00.668Z,312
2016-11-25T07:12:00.657Z,340
2016-11-25T07:13:00.640Z,356
2016-11-25T07:14:00.636Z,348
2016-11-25T07:15:00.649Z,336
2016-11-25T07:16:00.597Z,348
2016-11-25T07:17:00.582Z,328
2016-11-25T07:18:00.571Z,348
2016-11-25T07:19:00.557Z,340
2016-11-25T07:20:00.538Z,364
2016-11-25T07:21:00.539Z,376
2016-11-25T07:22:00.509Z,352
2016-11-25T07:23:00.513Z,404
2016-11-25T07:24:00.484Z,416
2016-11-25T07:25:00.466Z,456
2016-11-25T07:26:00.453Z,492
2016-11-25T07:27:00.443Z,596
2016-11-25T07:28:00.423Z,572
2016-11-25T07:29:00.415Z,548
2016-11-25T07:30:00.396Z,576
2016-11-25T07:31:00.388Z,632
2016-11-25T07:32:00.367Z,676
2016-11-25T07:33:00.674Z,672
2016-11-25T07:34:00.337Z,800
2016-11-25T07:35:00.325Z,820
2016-11-25T07:36:00.309Z,816
2016-11-25T07:37:00.326Z,784
2016-11-25T07:38:00.281Z,768
2016-11-25T07:39:00.266Z,824
2016-11-25T07:40:00.250Z,876
2016-11-25T07:41:00.236Z,804
2016-11-25T07:42:00.223Z,792
2016-11-25T07:43:00.524Z,860
2016-11-25T07:44:00.206Z,1052
2016-11-25T07:45:00.181Z,1176
2016-11-25T07:46:00.165Z,1084
2016-11-25T07:47:00.152Z,956
2016-11-25T07:48:00.134Z,924
2016-11-25T07:49:00.116Z,960
2016-11-25T07:50:00.105Z,1056
2016-11-25T07:51:00.092Z,1128
2016-11-25T07:52:00.391Z,1048
2016-11-25T07:53:00.058Z,1028
2016-11-25T07:54:00.052Z,1128
2016-11-25T07:55:00.040Z,1120
2016-11-25T07:56:00.016Z,1184
2016-11-25T07:57:00.001Z,1152
2016-11-25T07:57:59.991Z,1072
2016-11-25T07:58:59.973Z,1032
2016-11-25T07:59:59.957Z,1028
2016-11-25T08:00:59.945Z,1044
2016-11-25T08:01:59.928Z,1072
2016-11-25T08:02:59.914Z,1028
2016-11-25T08:03:59.897Z,1072
2016-11-25T08:04:59.887Z,1076
2016-11-25T08:05:59.865Z,1080
2016-11-25T08:06:59.860Z,1212
2016-11-25T08:07:59.839Z,1192
2016-11-25T08:08:59.825Z,1100
2016-11-25T08:09:59.811Z,1164
2016-11-25T08:10:59.795Z,1260
2016-11-25T08:12:00.094Z,1296
2016-11-25T08:12:59.765Z,1308
2016-11-25T08:13:59.746Z,1332
2016-11-25T08:14:59.740Z,1388
2016-11-25T08:15:59.734Z,1384
2016-11-25T08:16:59.722Z,1368
2016-11-25T08:17:59.694Z,1288
2016-11-25T08:18:59.689Z,1388
2016-11-25T08:19:59.677Z,1604
2016-11-25T08:20:59.650Z,2012
2016-11-25T08:21:59.637Z,2220
2016-11-25T08:23:00.060Z,2124
2016-11-25T08:23:59.605Z,2028
2016-11-25T08:24:59.592Z,1924
2016-11-25T08:25:59.592Z,1988
2016-11-25T08:26:59.561Z,2160
2016-11-25T08:27:59.568Z,2164
2016-11-25T08:28:59.535Z,2132
2016-11-25T08:29:59.536Z,2052
2016-11-25T08:30:59.497Z,2024
2016-11-25T08:31:59.511Z,2100
2016-11-25T08:32:59.780Z,2200
2016-11-25T08:33:59.451Z,2240
2016-11-25T08:34:59.549Z,2316
2016-11-25T08:35:59.422Z,2032
2016-11-25T08:36:59.405Z,2000
2016-11-25T08:37:59.391Z,2240
2016-11-25T08:38:59.379Z,2212
2016-11-25T08:39:59.503Z,2188
2016-11-25T08:40:59.675Z,2220
2016-11-25T08:41:59.334Z,2160
2016-11-25T08:42:59.327Z,2228
2016-11-25T08:43:59.297Z,2400
2016-11-25T08:44:59.293Z,2540
2016-11-25T08:45:59.272Z,2656
2016-11-25T08:46:59.260Z,2432
2016-11-25T08:47:59.243Z,2312
2016-11-25T08:48:59.227Z,2140
2016-11-25T08:49:59.257Z,2096
2016-11-25T08:50:59.201Z,1904
2016-11-25T08:51:59.186Z,1836
2016-11-25T08:52:59.166Z,1892
2016-11-25T08:53:59.380Z,1804
2016-11-25T08:54:59.147Z,1836
2016-11-25T08:55:59.454Z,1732
2016-11-25T08:56:59.107Z,1692
2016-11-25T08:57:59.100Z,1632
2016-11-25T08:58:59.077Z,1692
2016-11-25T08:59:59.206Z,1776
2016-11-25T09:00:59.589Z,1956
2016-11-25T09:01:59.275Z,1840
2016-11-25T09:02:59.340Z,1828
2016-11-25T09:03:59.008Z,1864
2016-11-25T09:04:59.416Z,1848
2016-11-25T09:05:59.200Z,1904
2016-11-25T09:06:59.075Z,2064
2016-11-25T09:07:59.019Z,2116
2016-11-25T09:08:59.085Z,2240
2016-11-25T09:09:58.968Z,2140
2016-11-25T09:10:58.978Z,2196
2016-11-25T09:11:58.897Z,2176
2016-11-25T09:12:59.195Z,2232
2016-11-25T09:13:58.903Z,2396
2016-11-25T09:14:58.883Z,2296
2016-11-25T09:15:58.827Z,2252
2016-11-25T09:16:58.813Z,2396
2016-11-25T09:17:58.800Z,2328
2016-11-25T09:18:58.788Z,2364
2016-11-25T09:19:58.771Z,2460
2016-11-25T09:20:58.759Z,2480
2016-11-25T09:21:58.740Z,2492
2016-11-25T09:22:58.728Z,2708
2016-11-25T09:23:58.874Z,2948
2016-11-25T09:24:58.964Z,3332
2016-11-25T09:25:58.958Z,3672
2016-11-25T09:26:58.667Z,3536
2016-11-25T09:27:58.649Z,3548
2016-11-25T09:28:58.642Z,3204
2016-11-25T09:29:58.620Z,2896
2016-11-25T09:30:58.609Z,2796
2016-11-25T09:31:58.809Z,3064
2016-11-25T09:32:58.624Z,3164
2016-11-25T09:33:58.566Z,3188
2016-11-25T09:34:58.553Z,3712
2016-11-25T09:35:58.532Z,4604
2016-11-25T09:36:58.527Z,4492
2016-11-25T09:37:58.503Z,3660
2016-11-25T09:38:58.489Z,3824
2016-11-25T09:39:58.510Z,3396
2016-11-25T09:40:58.462Z,2860
2016-11-25T09:41:58.481Z,2756
2016-11-25T09:42:58.434Z,2948
2016-11-25T09:43:58.425Z,2732
2016-11-25T09:44:58.405Z,2616
2016-11-25T09:45:58.389Z,2604
2016-11-25T09:46:58.384Z,2992
2016-11-25T09:47:58.360Z,3116
2016-11-25T09:48:58.347Z,2972
2016-11-25T09:49:58.332Z,3060
2016-11-25T09:50:58.317Z,3132
2016-11-25T09:51:58.303Z,2804
2016-11-25T09:52:58.286Z,3288
2016-11-25T09:53:58.279Z,3696
2016-11-25T09:54:58.261Z,3520
2016-11-25T09:55:58.561Z,3516
2016-11-25T09:56:58.536Z,3340
2016-11-25T09:57:58.217Z,3276
2016-11-25T09:58:58.334Z,3160
2016-11-25T09:59:58.188Z,3344
2016-11-25T10:00:58.175Z,3088
2016-11-25T10:01:58.191Z,3212
2016-11-25T10:02:58.142Z,3104
2016-11-25T10:03:58.133Z,2640
2016-11-25T10:04:58.225Z,2684
2016-11-25T10:05:58.107Z,2780
2016-11-25T10:06:58.084Z,2888
2016-11-25T10:07:58.075Z,3256
2016-11-25T10:08:58.057Z,3128
2016-11-25T10:09:58.049Z,3088
2016-11-25T10:10:58.025Z,3052
2016-11-25T10:11:58.075Z,3356
2016-11-25T10:12:58.090Z,3692
2016-11-25T10:13:57.988Z,3356
2016-11-25T10:14:58.137Z,3048
2016-11-25T10:15:57.955Z,2760
2016-11-25T10:16:57.945Z,2304
2016-11-25T10:17:57.930Z,2332
2016-11-25T10:18:57.931Z,2392
2016-11-25T10:19:57.897Z,2900
2016-11-25T10:20:58.071Z,3036
2016-11-25T10:21:57.891Z,2328
2016-11-25T10:22:58.414Z,2104
2016-11-25T10:23:57.838Z,2348
2016-11-25T10:24:57.829Z,2700
2016-11-25T10:25:57.813Z,3148
2016-11-25T10:26:57.800Z,3232
2016-11-25T10:27:57.782Z,3056
2016-11-25T10:28:57.766Z,3428
2016-11-25T10:29:57.753Z,3548
2016-11-25T10:30:57.750Z,3292
2016-11-25T10:31:57.759Z,2972
2016-11-25T10:32:57.982Z,3320
2016-11-25T10:33:57.863Z,3644
2016-11-25T10:34:57.975Z,3816
2016-11-25T10:35:57.673Z,3576
2016-11-25T10:36:57.996Z,3664
2016-11-25T10:37:57.640Z,3960
2016-11-25T10:38:57.625Z,3820
2016-11-25T10:39:57.647Z,4076
2016-11-25T10:40:57.600Z,4132
2016-11-25T10:41:57.776Z,4132
2016-11-25T10:42:57.870Z,3796
2016-11-25T10:43:58.194Z,3736
2016-11-25T10:44:57.550Z,3880
2016-11-25T10:45:57.557Z,3936
2016-11-25T10:46:57.587Z,4224
2016-11-25T10:47:57.496Z,3752
2016-11-25T10:48:57.754Z,3624
2016-11-25T10:49:57.507Z,3692
2016-11-25T10:50:57.456Z,3444
2016-11-25T10:51:57.442Z,3548
2016-11-25T10:52:57.439Z,3636
2016-11-25T10:53:57.419Z,4100
2016-11-25T10:54:57.403Z,4212
2016-11-25T10:55:57.389Z,4136
2016-11-25T10:56:57.372Z,3968
2016-11-25T10:57:57.691Z,4132
2016-11-25T10:58:57.347Z,3788
2016-11-25T10:59:57.329Z,4008
2016-11-25T11:00:57.514Z,3728
2016-11-25T11:01:57.302Z,3648
2016-11-25T11:02:57.295Z,3636
2016-11-25T11:03:57.272Z,3808
2016-11-25T11:04:57.665Z,4420
2016-11-25T11:05:57.245Z,4096
2016-11-25T11:06:57.235Z,3956
2016-11-25T11:07:57.218Z,3844
2016-11-25T11:08:57.205Z,3868
2016-11-25T11:09:57.196Z,4192
2016-11-25T11:10:57.275Z,4100
2016-11-25T11:11:57.166Z,3800
2016-11-25T11:12:57.147Z,3916
2016-11-25T11:13:57.138Z,3888
2016-11-25T11:14:57.137Z,4004
2016-11-25T11:15:57.110Z,3928
2016-11-25T11:16:57.363Z,4376
2016-11-25T11:17:57.619Z,4464
2016-11-25T11:18:57.390Z,4384
2016-11-25T11:19:57.057Z,4248
2016-11-25T11:20:57.042Z,3976
2016-11-25T11:21:57.027Z,3832
2016-11-25T11:22:57.016Z,3492
2016-11-25T11:23:57.002Z,3532
2016-11-25T11:24:56.984Z,3932
2016-11-25T11:25:56.971Z,4512
2016-11-25T11:26:57.276Z,3988
2016-11-25T11:27:56.943Z,3748
2016-11-25T11:28:56.930Z,3984
2016-11-25T11:29:56.914Z,4240
2016-11-25T11:30:56.915Z,4336
2016-11-25T11:31:56.970Z,4344
2016-11-25T11:32:57.230Z,4152
2016-11-25T11:33:56.904Z,3968
2016-11-25T11:34:56.850Z,4380
2016-11-25T11:35:56.843Z,4280
2016-11-25T11:36:56.828Z,4424
2016-11-25T11:37:56.809Z,4536
2016-11-25T11:38:56.798Z,4696
2016-11-25T11:39:56.784Z,4764
2016-11-25T11:40:56.770Z,4760
2016-11-25T11:41:56.766Z,4856
2016-11-25T11:42:56.845Z,5328
2016-11-25T11:43:57.094Z,4580
2016-11-25T11:44:56.924Z,4836
2016-11-25T11:45:56.840Z,5100
2016-11-25T11:46:56.685Z,4968
2016-11-25T11:47:56.675Z,5124
2016-11-25T11:48:56.664Z,5040
2016-11-25T11:49:56.648Z,5240
2016-11-25T11:50:56.637Z,5348
2016-11-25T11:51:56.620Z,5128
2016-11-25T11:52:56.612Z,4592
2016-11-25T11:53:56.602Z,3688
2016-11-25T11:54:56.579Z,3028
2016-11-25T11:55:56.569Z,2408
2016-11-25T11:56:56.556Z,2460
2016-11-25T11:57:56.856Z,2444
2016-11-25T11:58:56.534Z,2932
2016-11-25T11:59:56.527Z,3704
2016-11-25T12:00:56.505Z,3804
2016-11-25T12:01:56.498Z,4440
2016-11-25T12:02:56.479Z,4240
2016-11-25T12:03:56.790Z,4220
2016-11-25T12:04:56.456Z,4784
2016-11-25T12:05:56.440Z,4964
2016-11-25T12:06:56.421Z,4232
2016-11-25T12:07:56.414Z,3964
2016-11-25T12:08:56.404Z,3572
2016-11-25T12:09:56.385Z,3268
2016-11-25T12:10:56.380Z,3100
2016-11-25T12:11:56.355Z,3128
2016-11-25T12:12:56.347Z,3052
2016-11-25T12:13:56.334Z,2916
2016-11-25T12:14:56.351Z,3140
2016-11-25T12:15:56.305Z,3220
2016-11-25T12:16:56.300Z,3004
2016-11-25T12:17:56.276Z,2744
2016-11-25T12:18:56.579Z,2552
2016-11-25T12:19:56.257Z,2372
2016-11-25T12:20:56.239Z,2348
2016-11-25T12:21:56.233Z,2284
2016-11-25T12:22:56.211Z,2172
2016-11-25T12:23:56.198Z,2012
2016-11-25T12:24:56.184Z,2084
2016-11-25T12:25:56.179Z,2224
2016-11-25T12:26:56.163Z,2244
2016-11-25T12:27:56.145Z,2308
2016-11-25T12:28:56.132Z,2428
2016-11-25T12:29:56.119Z,2464
2016-11-25T12:30:56.105Z,2424
2016-11-25T12:31:56.091Z,2524
2016-11-25T12:32:56.078Z,2416
2016-11-25T12:33:56.066Z,2396
2016-11-25T12:34:56.056Z,2184
2016-11-25T12:35:56.039Z,2148
2016-11-25T12:36:56.020Z,2240
2016-11-25T12:37:56.008Z,2212
2016-11-25T12:38:55.994Z,2104
2016-11-25T12:39:55.983Z,1992
2016-11-25T12:40:55.974Z,1980
2016-11-25T12:41:56.269Z,2168
2016-11-25T12:42:55.986Z,2252
2016-11-25T12:43:55.927Z,2288
2016-11-25T12:44:55.942Z,2580
2016-11-25T12:45:55.899Z,2660
2016-11-25T12:46:55.886Z,2416
2016-11-25T12:47:55.872Z,2208
2016-11-25T12:48:55.887Z,2232
2016-11-25T12:49:55.845Z,2212
2016-11-25T12:50:55.831Z,1920
2016-11-25T12:51:55.816Z,1988
2016-11-25T12:52:55.801Z,2060
2016-11-25T12:53:55.787Z,2120
2016-11-25T12:54:55.772Z,1980
2016-11-25T12:55:55.770Z,1972
2016-11-25T12:56:55.749Z,2072
2016-11-25T12:57:55.732Z,2316
2016-11-25T12:58:55.720Z,2320
2016-11-25T12:59:55.706Z,2228
2016-11-25T13:00:55.691Z,2340
2016-11-25T13:01:55.675Z,2504
2016-11-25T13:02:55.663Z,2508
2016-11-25T13:03:55.647Z,2548
2016-11-25T13:04:55.638Z,2472
2016-11-25T13:05:55.651Z,2592
2016-11-25T13:06:55.607Z,2396
2016-11-25T13:07:55.601Z,2344
2016-11-25T13:08:55.579Z,2556
2016-11-25T13:09:55.567Z,2536
2016-11-25T13:10:55.552Z,2184
2016-11-25T13:11:55.539Z,2284
2016-11-25T13:12:55.521Z,2376
2016-11-25T13:13:55.508Z,2672
2016-11-25T13:14:55.496Z,2440
2016-11-25T13:15:55.482Z,2368
2016-11-25T13:16:55.470Z,2276
2016-11-25T13:17:55.479Z,2420
2016-11-25T13:18:55.438Z,2512
2016-11-25T13:19:55.424Z,2656
2016-11-25T13:20:55.421Z,2492
2016-11-25T13:21:55.397Z,2688
2016-11-25T13:22:55.382Z,2956
2016-11-25T13:23:55.373Z,2628
2016-11-25T13:24:55.360Z,2760
2016-11-25T13:25:55.342Z,3232
2016-11-25T13:26:55.330Z,3348
2016-11-25T13:27:55.369Z,3320
2016-11-25T13:28:55.301Z,3152
2016-11-25T13:29:55.604Z,3332
2016-11-25T13:30:55.282Z,3664
2016-11-25T13:31:55.260Z,3560
2016-11-25T13:32:55.247Z,3308
2016-11-25T13:33:55.234Z,3092
2016-11-25T13:34:55.222Z,3088
2016-11-25T13:35:55.205Z,3096
2016-11-25T13:36:55.223Z,3028
2016-11-25T13:37:55.176Z,2476
2016-11-25T13:38:55.165Z,2308
2016-11-25T13:39:55.151Z,2532
2016-11-25T13:40:55.137Z,2616
2016-11-25T13:41:55.121Z,2656
2016-11-25T13:42:55.109Z,2848
2016-11-25T13:43:55.130Z,2928
2016-11-25T13:44:55.085Z,2864
2016-11-25T13:45:55.920Z,2916
2016-11-25T13:46:55.052Z,2808
2016-11-25T13:47:55.043Z,3052
2016-11-25T13:48:55.027Z,2768
2016-11-25T13:49:55.017Z,2520
2016-11-25T13:50:55.004Z,2484
2016-11-25T13:51:54.988Z,2328
2016-11-25T13:52:54.975Z,2080
2016-11-25T13:53:54.959Z,2052
2016-11-25T13:54:54.946Z,2072
2016-11-25T13:55:54.941Z,2272
2016-11-25T13:56:54.922Z,1976
2016-11-25T13:57:54.907Z,1816
2016-11-25T13:58:54.892Z,2048
2016-11-25T13:59:54.879Z,1828